sensor_id;sensor_type;location;lat;lon;timestamp;P1;durP1;ratioP1;P2;durP2;ratioP2
62457;SDS011;48509;52.122;5.250;2022-09-12T00:00:39;28.3;;;23.6;;
62457;SDS011;48509;52.122;5.250;2022-09-12T00:03:51;27.6;;;23.7;;
62457;SDS011;48509;52.122;5.250;2022-09-12T00:05:32;30.2;;;25.3;;
62457;SDS011;48509;52.122;5.250;2022-09-12T00:07:08;32.8;;;25.5;;
62457;SDS011;48509;52.122;5.250;2022-09-12T00:08:46;32.4;;;27.0;;
62457;SDS011;48509;52.122;5.250;2022-09-12T00:12:01;30.8;;;26.9;;
62457;SDS011;48509;52.122;5.250;2022-09-12T00:13:38;34.5;;;28.2;;
62457;SDS011;48509;52.122;5.250;2022-09-12T00:15:17;29.9;;;26.3;;
62457;SDS011;48509;52.122;5.250;2022-09-12T00:18:33;35.1;;;28.8;;
62457;SDS011;48509;52.122;5.250;2022-09-12T00:20:09;37.81;;;29.7;;
62457;SDS011;48509;52.122;5.250;2022-09-12T00:21:46;35.71;;;29.4;;
62457;SDS011;48509;52.122;5.250;2022-09-12T00:23:22;32.5;;;28.2;;
62457;SDS011;48509;52.122;5.250;2022-09-12T00:26:37;40.81;;;34.71;;
62457;SDS011;48509;52.122;5.250;2022-09-12T00:28:15;37.4;;;30.5;;
62457;SDS011;48509;52.122;5.250;2022-09-12T00:29:52;38.0;;;29.5;;
62457;SDS011;48509;52.122;5.250;2022-09-12T00:33:07;37.71;;;30.5;;
62457;SDS011;48509;52.122;5.250;2022-09-12T00:34:44;31.8;;;27.7;;
62457;SDS011;48509;52.122;5.250;2022-09-12T00:36:22;43.7;;;34.0;;
62457;SDS011;48509;52.122;5.250;2022-09-12T00:38:00;36.0;;;29.3;;
62457;SDS011;48509;52.122;5.250;2022-09-12T00:41:14;37.4;;;31.7;;
62457;SDS011;48509;52.122;5.250;2022-09-12T00:42:54;35.0;;;28.3;;
62457;SDS011;48509;52.122;5.250;2022-09-12T00:44:47;37.9;;;31.6;;
62457;SDS011;48509;52.122;5.250;2022-09-12T00:46:29;34.31;;;28.2;;
62457;SDS011;48509;52.122;5.250;2022-09-12T00:50:03;37.71;;;29.7;;
62457;SDS011;48509;52.122;5.250;2022-09-12T00:51:45;37.1;;;28.9;;
62457;SDS011;48509;52.122;5.250;2022-09-12T00:53:27;43.5;;;34.5;;
62457;SDS011;48509;52.122;5.250;2022-09-12T00:55:06;37.6;;;30.4;;
62457;SDS011;48509;52.122;5.250;2022-09-12T00:56:46;41.0;;;33.6;;
62457;SDS011;48509;52.122;5.250;2022-09-12T01:00:14;38.21;;;29.9;;
62457;SDS011;48509;52.122;5.250;2022-09-12T01:01:54;52.6;;;39.81;;
62457;SDS011;48509;52.122;5.250;2022-09-12T01:03:31;48.2;;;37.4;;
62457;SDS011;48509;52.122;5.250;2022-09-12T01:05:09;39.5;;;33.5;;
62457;SDS011;48509;52.122;5.250;2022-09-12T01:08:26;44.1;;;36.0;;
62457;SDS011;48509;52.122;5.250;2022-09-12T01:10:04;40.81;;;32.8;;
62457;SDS011;48509;52.122;5.250;2022-09-12T01:11:45;42.7;;;34.9;;
62457;SDS011;48509;52.122;5.250;2022-09-12T01:15:01;37.4;;;32.5;;
62457;SDS011;48509;52.122;5.250;2022-09-12T01:16:38;42.4;;;32.9;;
62457;SDS011;48509;52.122;5.250;2022-09-12T01:18:18;43.5;;;35.81;;
62457;SDS011;48509;52.122;5.250;2022-09-12T01:20:12;43.9;;;37.21;;
62457;SDS011;48509;52.122;5.250;2022-09-12T01:22:35;48.3;;;38.31;;
62457;SDS011;48509;52.122;5.250;2022-09-12T01:24:36;42.2;;;34.81;;
62457;SDS011;48509;52.122;5.250;2022-09-12T01:26:36;47.4;;;36.81;;
62457;SDS011;48509;52.122;5.250;2022-09-12T01:29:32;47.0;;;36.5;;
62457;SDS011;48509;52.122;5.250;2022-09-12T01:34:08;40.5;;;33.5;;
62457;SDS011;48509;52.122;5.250;2022-09-12T01:35:56;42.0;;;34.71;;
62457;SDS011;48509;52.122;5.250;2022-09-12T01:37:46;41.0;;;34.5;;
62457;SDS011;48509;52.122;5.250;2022-09-12T01:39:35;38.81;;;31.6;;
62457;SDS011;48509;52.122;5.250;2022-09-12T01:41:22;41.7;;;34.9;;
62457;SDS011;48509;52.122;5.250;2022-09-12T01:43:05;47.9;;;38.5;;
62457;SDS011;48509;52.122;5.250;2022-09-12T01:44:55;53.2;;;42.3;;
62457;SDS011;48509;52.122;5.250;2022-09-12T01:48:28;47.1;;;37.6;;
62457;SDS011;48509;52.122;5.250;2022-09-12T01:50:09;47.5;;;39.0;;
62457;SDS011;48509;52.122;5.250;2022-09-12T01:51:54;53.3;;;42.3;;
62457;SDS011;48509;52.122;5.250;2022-09-12T01:53:37;45.4;;;36.81;;
62457;SDS011;48509;52.122;5.250;2022-09-12T01:55:19;53.9;;;42.2;;
62457;SDS011;48509;52.122;5.250;2022-09-12T01:58:49;52.3;;;39.81;;
62457;SDS011;48509;52.122;5.250;2022-09-12T02:00:29;52.0;;;42.3;;
62457;SDS011;48509;52.122;5.250;2022-09-12T02:02:10;49.9;;;38.9;;
62457;SDS011;48509;52.122;5.250;2022-09-12T02:03:51;50.9;;;39.5;;
62457;SDS011;48509;52.122;5.250;2022-09-12T02:07:19;49.4;;;38.9;;
62457;SDS011;48509;52.122;5.250;2022-09-12T02:08:59;51.1;;;38.71;;
62457;SDS011;48509;52.122;5.250;2022-09-12T02:10:42;50.0;;;40.6;;
62457;SDS011;48509;52.122;5.250;2022-09-12T02:12:33;51.8;;;41.9;;
62457;SDS011;48509;52.122;5.250;2022-09-12T02:14:18;49.1;;;38.1;;
62457;SDS011;48509;52.122;5.250;2022-09-12T02:17:43;59.9;;;45.2;;
62457;SDS011;48509;52.122;5.250;2022-09-12T02:19:26;56.0;;;45.0;;
62457;SDS011;48509;52.122;5.250;2022-09-12T02:21:08;54.3;;;40.6;;
62457;SDS011;48509;52.122;5.250;2022-09-12T02:22:45;63.2;;;46.3;;
62457;SDS011;48509;52.122;5.250;2022-09-12T02:26:08;54.6;;;41.4;;
62457;SDS011;48509;52.122;5.250;2022-09-12T02:27:54;52.8;;;39.4;;
62457;SDS011;48509;52.122;5.250;2022-09-12T02:29:36;52.3;;;40.81;;
62457;SDS011;48509;52.122;5.250;2022-09-12T02:31:13;55.1;;;41.9;;
62457;SDS011;48509;52.122;5.250;2022-09-12T02:32:59;48.3;;;39.21;;
62457;SDS011;48509;52.122;5.250;2022-09-12T02:36:29;47.2;;;38.1;;
62457;SDS011;48509;52.122;5.250;2022-09-12T02:38:15;51.9;;;39.5;;
62457;SDS011;48509;52.122;5.250;2022-09-12T02:39:59;54.9;;;43.6;;
62457;SDS011;48509;52.122;5.250;2022-09-12T02:41:36;50.9;;;39.4;;
62457;SDS011;48509;52.122;5.250;2022-09-12T02:44:51;48.7;;;38.81;;
62457;SDS011;48509;52.122;5.250;2022-09-12T02:46:33;52.7;;;41.3;;
62457;SDS011;48509;52.122;5.250;2022-09-12T02:48:19;47.6;;;38.5;;
62457;SDS011;48509;52.122;5.250;2022-09-12T02:50:00;59.0;;;43.7;;
62457;SDS011;48509;52.122;5.250;2022-09-12T02:53:14;53.8;;;41.2;;
62457;SDS011;48509;52.122;5.250;2022-09-12T02:54:54;50.1;;;39.9;;
62457;SDS011;48509;52.122;5.250;2022-09-12T02:56:33;52.6;;;40.9;;
62457;SDS011;48509;52.122;5.250;2022-09-12T02:58:12;58.0;;;45.0;;
62457;SDS011;48509;52.122;5.250;2022-09-12T03:01:39;51.0;;;40.81;;
62457;SDS011;48509;52.122;5.250;2022-09-12T03:03:34;61.6;;;47.0;;
62457;SDS011;48509;52.122;5.250;2022-09-12T03:05:28;52.9;;;41.6;;
62457;SDS011;48509;52.122;5.250;2022-09-12T03:07:10;46.3;;;37.71;;
62457;SDS011;48509;52.122;5.250;2022-09-12T03:08:54;56.8;;;42.1;;
62457;SDS011;48509;52.122;5.250;2022-09-12T03:10:39;50.3;;;39.5;;
62457;SDS011;48509;52.122;5.250;2022-09-12T03:14:27;60.2;;;43.7;;
62457;SDS011;48509;52.122;5.250;2022-09-12T03:16:20;51.3;;;41.1;;
62457;SDS011;48509;52.122;5.250;2022-09-12T03:18:07;58.9;;;44.6;;
62457;SDS011;48509;52.122;5.250;2022-09-12T03:20:09;57.9;;;44.4;;
62457;SDS011;48509;52.122;5.250;2022-09-12T03:21:52;49.9;;;38.81;;
62457;SDS011;48509;52.122;5.250;2022-09-12T03:23:39;53.4;;;40.6;;
62457;SDS011;48509;52.122;5.250;2022-09-12T03:25:27;55.6;;;42.5;;
62457;SDS011;48509;52.122;5.250;2022-09-12T03:28:50;49.3;;;38.31;;
62457;SDS011;48509;52.122;5.250;2022-09-12T03:30:30;55.0;;;42.0;;
62457;SDS011;48509;52.122;5.250;2022-09-12T03:32:14;51.5;;;39.71;;
62457;SDS011;48509;52.122;5.250;2022-09-12T03:33:51;55.5;;;40.6;;
62457;SDS011;48509;52.122;5.250;2022-09-12T03:37:05;51.7;;;40.9;;
62457;SDS011;48509;52.122;5.250;2022-09-12T03:38:41;52.7;;;40.4;;
62457;SDS011;48509;52.122;5.250;2022-09-12T03:40:18;52.6;;;40.9;;
62457;SDS011;48509;52.122;5.250;2022-09-12T03:43:32;56.0;;;41.6;;
62457;SDS011;48509;52.122;5.250;2022-09-12T03:45:08;50.9;;;38.31;;
62457;SDS011;48509;52.122;5.250;2022-09-12T03:46:46;56.3;;;41.1;;
62457;SDS011;48509;52.122;5.250;2022-09-12T03:48:22;52.9;;;41.4;;
62457;SDS011;48509;52.122;5.250;2022-09-12T03:51:34;54.8;;;40.5;;
62457;SDS011;48509;52.122;5.250;2022-09-12T03:53:11;50.0;;;39.9;;
62457;SDS011;48509;52.122;5.250;2022-09-12T03:54:47;54.0;;;40.71;;
62457;SDS011;48509;52.122;5.250;2022-09-12T03:58:00;54.5;;;41.1;;
62457;SDS011;48509;52.122;5.250;2022-09-12T03:59:36;52.3;;;41.6;;
62457;SDS011;48509;52.122;5.250;2022-09-12T04:01:13;54.4;;;41.7;;
62457;SDS011;48509;52.122;5.250;2022-09-12T04:02:52;52.2;;;40.4;;
62457;SDS011;48509;52.122;5.250;2022-09-12T04:06:07;48.4;;;39.4;;
62457;SDS011;48509;52.122;5.250;2022-09-12T04:07:45;47.4;;;39.5;;
62457;SDS011;48509;52.122;5.250;2022-09-12T04:09:22;53.9;;;41.4;;
62457;SDS011;48509;52.122;5.250;2022-09-12T04:12:38;52.1;;;38.0;;
62457;SDS011;48509;52.122;5.250;2022-09-12T04:14:14;50.3;;;39.1;;
62457;SDS011;48509;52.122;5.250;2022-09-12T04:15:58;51.0;;;40.1;;
62457;SDS011;48509;52.122;5.250;2022-09-12T04:17:35;50.3;;;37.71;;
62457;SDS011;48509;52.122;5.250;2022-09-12T04:20:47;48.0;;;38.0;;
62457;SDS011;48509;52.122;5.250;2022-09-12T04:22:23;48.4;;;37.0;;
62457;SDS011;48509;52.122;5.250;2022-09-12T04:23:59;47.4;;;38.1;;
62457;SDS011;48509;52.122;5.250;2022-09-12T04:27:11;51.5;;;40.5;;
62457;SDS011;48509;52.122;5.250;2022-09-12T04:28:52;53.0;;;42.3;;
62457;SDS011;48509;52.122;5.250;2022-09-12T04:30:30;48.4;;;38.4;;
62457;SDS011;48509;52.122;5.250;2022-09-12T04:33:44;54.0;;;40.71;;
62457;SDS011;48509;52.122;5.250;2022-09-12T04:35:22;52.9;;;41.5;;
62457;SDS011;48509;52.122;5.250;2022-09-12T04:36:57;58.6;;;44.2;;
62457;SDS011;48509;52.122;5.250;2022-09-12T04:38:34;48.5;;;38.5;;
62457;SDS011;48509;52.122;5.250;2022-09-12T04:41:48;49.3;;;39.81;;
62457;SDS011;48509;52.122;5.250;2022-09-12T04:43:24;50.8;;;39.9;;
62457;SDS011;48509;52.122;5.250;2022-09-12T04:45:00;48.9;;;37.4;;
62457;SDS011;48509;52.122;5.250;2022-09-12T04:48:16;47.5;;;38.1;;
62457;SDS011;48509;52.122;5.250;2022-09-12T04:49:54;51.7;;;38.71;;
62457;SDS011;48509;52.122;5.250;2022-09-12T04:51:30;50.9;;;38.6;;
62457;SDS011;48509;52.122;5.250;2022-09-12T04:53:08;52.4;;;40.6;;
62457;SDS011;48509;52.122;5.250;2022-09-12T04:56:20;48.6;;;40.0;;
62457;SDS011;48509;52.122;5.250;2022-09-12T04:57:57;62.3;;;46.8;;
62457;SDS011;48509;52.122;5.250;2022-09-12T04:59:33;56.1;;;42.9;;
62457;SDS011;48509;52.122;5.250;2022-09-12T05:02:49;50.6;;;40.31;;
62457;SDS011;48509;52.122;5.250;2022-09-12T05:04:25;52.6;;;40.81;;
62457;SDS011;48509;52.122;5.250;2022-09-12T05:06:01;56.3;;;42.8;;
62457;SDS011;48509;52.122;5.250;2022-09-12T05:09:15;56.5;;;39.81;;
62457;SDS011;48509;52.122;5.250;2022-09-12T05:10:52;55.4;;;43.5;;
62457;SDS011;48509;52.122;5.250;2022-09-12T05:12:30;62.7;;;46.8;;
62457;SDS011;48509;52.122;5.250;2022-09-12T05:14:07;54.1;;;41.5;;
62457;SDS011;48509;52.122;5.250;2022-09-12T05:17:29;51.3;;;40.1;;
62457;SDS011;48509;52.122;5.250;2022-09-12T05:19:05;56.5;;;42.0;;
62457;SDS011;48509;52.122;5.250;2022-09-12T05:20:42;56.7;;;44.3;;
62457;SDS011;48509;52.122;5.250;2022-09-12T05:23:55;55.4;;;43.7;;
62457;SDS011;48509;52.122;5.250;2022-09-12T05:25:32;53.5;;;40.5;;
62457;SDS011;48509;52.122;5.250;2022-09-12T05:27:09;64.2;;;47.3;;
62457;SDS011;48509;52.122;5.250;2022-09-12T05:28:45;57.8;;;44.2;;
62457;SDS011;48509;52.122;5.250;2022-09-12T05:31:58;61.2;;;46.6;;
62457;SDS011;48509;52.122;5.250;2022-09-12T05:33:35;56.5;;;44.5;;
62457;SDS011;48509;52.122;5.250;2022-09-12T05:35:12;59.4;;;46.1;;
62457;SDS011;48509;52.122;5.250;2022-09-12T05:38:25;61.2;;;46.6;;
62457;SDS011;48509;52.122;5.250;2022-09-12T05:40:06;62.8;;;48.6;;
62457;SDS011;48509;52.122;5.250;2022-09-12T05:41:43;61.4;;;47.1;;
62457;SDS011;48509;52.122;5.250;2022-09-12T05:43:19;62.0;;;46.8;;
62457;SDS011;48509;52.122;5.250;2022-09-12T05:46:35;77.11;;;55.7;;
62457;SDS011;48509;52.122;5.250;2022-09-12T05:48:12;83.8;;;57.5;;
62457;SDS011;48509;52.122;5.250;2022-09-12T05:49:50;71.8;;;51.9;;
62457;SDS011;48509;52.122;5.250;2022-09-12T05:53:09;66.91;;;49.8;;
62457;SDS011;48509;52.122;5.250;2022-09-12T05:54:46;68.2;;;50.1;;
62457;SDS011;48509;52.122;5.250;2022-09-12T05:56:24;58.3;;;43.2;;
62457;SDS011;48509;52.122;5.250;2022-09-12T05:58:03;64.8;;;47.1;;
62457;SDS011;48509;52.122;5.250;2022-09-12T06:01:17;71.2;;;52.2;;
62457;SDS011;48509;52.122;5.250;2022-09-12T06:02:55;70.91;;;51.7;;
62457;SDS011;48509;52.122;5.250;2022-09-12T06:04:31;69.11;;;49.7;;
62457;SDS011;48509;52.122;5.250;2022-09-12T06:07:44;77.2;;;55.9;;
62457;SDS011;48509;52.122;5.250;2022-09-12T06:09:21;68.5;;;49.9;;
62457;SDS011;48509;52.122;5.250;2022-09-12T06:10:59;69.91;;;51.5;;
62457;SDS011;48509;52.122;5.250;2022-09-12T06:12:36;92.5;;;61.1;;
62457;SDS011;48509;52.122;5.250;2022-09-12T06:15:51;73.0;;;49.8;;
62457;SDS011;48509;52.122;5.250;2022-09-12T06:17:27;76.7;;;53.6;;
62457;SDS011;48509;52.122;5.250;2022-09-12T06:19:04;75.8;;;52.7;;
62457;SDS011;48509;52.122;5.250;2022-09-12T06:22:20;78.11;;;52.8;;
62457;SDS011;48509;52.122;5.250;2022-09-12T06:23:57;72.41;;;51.7;;
62457;SDS011;48509;52.122;5.250;2022-09-12T06:25:34;75.5;;;53.2;;
62457;SDS011;48509;52.122;5.250;2022-09-12T06:28:48;73.3;;;53.9;;
62457;SDS011;48509;52.122;5.250;2022-09-12T06:30:26;81.5;;;56.2;;
62457;SDS011;48509;52.122;5.250;2022-09-12T06:32:02;85.7;;;56.0;;
62457;SDS011;48509;52.122;5.250;2022-09-12T06:33:39;86.2;;;55.9;;
62457;SDS011;48509;52.122;5.250;2022-09-12T06:36:54;89.0;;;60.0;;
62457;SDS011;48509;52.122;5.250;2022-09-12T06:38:30;79.8;;;54.9;;
62457;SDS011;48509;52.122;5.250;2022-09-12T06:40:07;84.7;;;55.6;;
62457;SDS011;48509;52.122;5.250;2022-09-12T06:43:23;82.7;;;57.7;;
62457;SDS011;48509;52.122;5.250;2022-09-12T06:44:59;82.1;;;56.5;;
62457;SDS011;48509;52.122;5.250;2022-09-12T06:46:35;79.41;;;57.2;;
62457;SDS011;48509;52.122;5.250;2022-09-12T06:48:11;79.2;;;55.3;;
62457;SDS011;48509;52.122;5.250;2022-09-12T06:51:25;85.4;;;58.1;;
62457;SDS011;48509;52.122;5.250;2022-09-12T06:53:02;73.0;;;53.7;;
62457;SDS011;48509;52.122;5.250;2022-09-12T06:54:38;85.6;;;59.7;;
62457;SDS011;48509;52.122;5.250;2022-09-12T06:57:55;87.3;;;60.3;;
62457;SDS011;48509;52.122;5.250;2022-09-12T06:59:31;85.8;;;60.0;;
62457;SDS011;48509;52.122;5.250;2022-09-12T07:01:07;81.61;;;58.4;;
62457;SDS011;48509;52.122;5.250;2022-09-12T07:04:22;84.4;;;59.2;;
62457;SDS011;48509;52.122;5.250;2022-09-12T07:06:00;89.3;;;61.6;;
62457;SDS011;48509;52.122;5.250;2022-09-12T07:07:38;75.7;;;55.2;;
62457;SDS011;48509;52.122;5.250;2022-09-12T07:09:15;77.11;;;56.9;;
62457;SDS011;48509;52.122;5.250;2022-09-12T07:12:28;81.91;;;56.9;;
62457;SDS011;48509;52.122;5.250;2022-09-12T07:14:04;84.7;;;59.8;;
62457;SDS011;48509;52.122;5.250;2022-09-12T07:15:43;82.9;;;57.8;;
62457;SDS011;48509;52.122;5.250;2022-09-12T07:18:56;96.2;;;63.0;;
62457;SDS011;48509;52.122;5.250;2022-09-12T07:20:33;82.2;;;57.1;;
62457;SDS011;48509;52.122;5.250;2022-09-12T07:22:09;87.2;;;60.7;;
62457;SDS011;48509;52.122;5.250;2022-09-12T07:23:45;78.91;;;56.1;;
62457;SDS011;48509;52.122;5.250;2022-09-12T07:26:59;76.0;;;55.3;;
62457;SDS011;48509;52.122;5.250;2022-09-12T07:28:35;74.61;;;53.9;;
62457;SDS011;48509;52.122;5.250;2022-09-12T07:30:11;79.2;;;55.2;;
62457;SDS011;48509;52.122;5.250;2022-09-12T07:33:25;79.0;;;55.8;;
62457;SDS011;48509;52.122;5.250;2022-09-12T07:35:03;73.0;;;51.5;;
62457;SDS011;48509;52.122;5.250;2022-09-12T07:36:39;69.5;;;50.5;;
62457;SDS011;48509;52.122;5.250;2022-09-12T07:39:51;79.7;;;54.8;;
62457;SDS011;48509;52.122;5.250;2022-09-12T07:41:28;76.8;;;54.4;;
62457;SDS011;48509;52.122;5.250;2022-09-12T07:43:06;74.61;;;52.0;;
62457;SDS011;48509;52.122;5.250;2022-09-12T07:44:43;69.91;;;52.2;;
62457;SDS011;48509;52.122;5.250;2022-09-12T07:47:56;65.2;;;49.2;;
62457;SDS011;48509;52.122;5.250;2022-09-12T07:49:32;69.11;;;50.8;;
62457;SDS011;48509;52.122;5.250;2022-09-12T07:51:09;64.7;;;48.9;;
62457;SDS011;48509;52.122;5.250;2022-09-12T07:54:23;68.91;;;49.3;;
62457;SDS011;48509;52.122;5.250;2022-09-12T07:55:59;67.1;;;49.9;;
62457;SDS011;48509;52.122;5.250;2022-09-12T07:57:36;64.41;;;46.6;;
62457;SDS011;48509;52.122;5.250;2022-09-12T08:00:48;61.1;;;46.4;;
62457;SDS011;48509;52.122;5.250;2022-09-12T08:02:25;57.9;;;45.0;;
62457;SDS011;48509;52.122;5.250;2022-09-12T08:04:04;63.5;;;47.4;;
62457;SDS011;48509;52.122;5.250;2022-09-12T08:05:39;61.2;;;43.9;;
62457;SDS011;48509;52.122;5.250;2022-09-12T08:08:54;62.2;;;45.5;;
62457;SDS011;48509;52.122;5.250;2022-09-12T08:10:33;59.7;;;44.8;;
62457;SDS011;48509;52.122;5.250;2022-09-12T08:12:09;62.5;;;44.0;;
62457;SDS011;48509;52.122;5.250;2022-09-12T08:15:22;55.7;;;42.3;;
62457;SDS011;48509;52.122;5.250;2022-09-12T08:16:58;57.9;;;42.5;;
62457;SDS011;48509;52.122;5.250;2022-09-12T08:18:35;57.6;;;42.1;;
62457;SDS011;48509;52.122;5.250;2022-09-12T08:20:11;54.9;;;41.5;;
62457;SDS011;48509;52.122;5.250;2022-09-12T08:23:24;54.9;;;41.8;;
62457;SDS011;48509;52.122;5.250;2022-09-12T08:25:00;50.9;;;40.1;;
62457;SDS011;48509;52.122;5.250;2022-09-12T08:26:36;50.8;;;39.31;;
62457;SDS011;48509;52.122;5.250;2022-09-12T08:29:49;50.3;;;37.81;;
62457;SDS011;48509;52.122;5.250;2022-09-12T08:31:25;50.3;;;38.4;;
62457;SDS011;48509;52.122;5.250;2022-09-12T08:33:02;48.9;;;37.4;;
62457;SDS011;48509;52.122;5.250;2022-09-12T08:36:14;50.4;;;37.71;;
62457;SDS011;48509;52.122;5.250;2022-09-12T08:37:53;49.3;;;37.5;;
62457;SDS011;48509;52.122;5.250;2022-09-12T08:39:29;45.6;;;35.9;;
62457;SDS011;48509;52.122;5.250;2022-09-12T08:41:06;46.3;;;34.5;;
62457;SDS011;48509;52.122;5.250;2022-09-12T08:44:41;41.9;;;34.5;;
62457;SDS011;48509;52.122;5.250;2022-09-12T08:46:34;44.6;;;33.4;;
62457;SDS011;48509;52.122;5.250;2022-09-12T08:48:18;45.3;;;34.9;;
62457;SDS011;48509;52.122;5.250;2022-09-12T08:49:58;45.1;;;33.3;;
62457;SDS011;48509;52.122;5.250;2022-09-12T08:51:39;43.5;;;32.5;;
62457;SDS011;48509;52.122;5.250;2022-09-12T08:54:58;38.71;;;30.7;;
62457;SDS011;48509;52.122;5.250;2022-09-12T08:56:36;41.5;;;30.4;;
62457;SDS011;48509;52.122;5.250;2022-09-12T08:58:16;44.5;;;32.3;;
62457;SDS011;48509;52.122;5.250;2022-09-12T08:59:55;36.31;;;28.9;;
62457;SDS011;48509;52.122;5.250;2022-09-12T09:03:31;35.4;;;28.3;;
62457;SDS011;48509;52.122;5.250;2022-09-12T09:05:28;31.9;;;26.0;;
62457;SDS011;48509;52.122;5.250;2022-09-12T09:07:19;31.1;;;25.4;;
62457;SDS011;48509;52.122;5.250;2022-09-12T09:09:27;32.71;;;26.4;;
62457;SDS011;48509;52.122;5.250;2022-09-12T09:11:21;29.6;;;24.2;;
62457;SDS011;48509;52.122;5.250;2022-09-12T09:13:11;33.0;;;24.7;;
62457;SDS011;48509;52.122;5.250;2022-09-12T09:15:02;37.1;;;28.1;;
62457;SDS011;48509;52.122;5.250;2022-09-12T09:16:52;38.81;;;28.9;;
62457;SDS011;48509;52.122;5.250;2022-09-12T09:20:13;32.8;;;26.7;;
62457;SDS011;48509;52.122;5.250;2022-09-12T09:22:02;31.8;;;24.2;;
62457;SDS011;48509;52.122;5.250;2022-09-12T09:23:43;31.8;;;24.2;;
62457;SDS011;48509;52.122;5.250;2022-09-12T09:25:24;33.21;;;26.3;;
62457;SDS011;48509;52.122;5.250;2022-09-12T09:27:14;37.5;;;29.8;;
62457;SDS011;48509;52.122;5.250;2022-09-12T09:30:47;36.6;;;30.0;;
62457;SDS011;48509;52.122;5.250;2022-09-12T09:32:26;37.21;;;30.7;;
62457;SDS011;48509;52.122;5.250;2022-09-12T09:34:08;40.9;;;32.21;;
62457;SDS011;48509;52.122;5.250;2022-09-12T09:35:52;39.4;;;32.0;;
62457;SDS011;48509;52.122;5.250;2022-09-12T09:37:36;41.0;;;32.8;;
62457;SDS011;48509;52.122;5.250;2022-09-12T09:41:24;42.2;;;32.0;;
62457;SDS011;48509;52.122;5.250;2022-09-12T09:43:15;41.7;;;32.6;;
62457;SDS011;48509;52.122;5.250;2022-09-12T09:44:56;40.71;;;32.0;;
62457;SDS011;48509;52.122;5.250;2022-09-12T09:46:37;36.0;;;29.1;;
62457;SDS011;48509;52.122;5.250;2022-09-12T09:48:15;34.81;;;28.2;;
62457;SDS011;48509;52.122;5.250;2022-09-12T09:51:33;35.31;;;30.5;;
62457;SDS011;48509;52.122;5.250;2022-09-12T09:53:15;37.0;;;29.8;;
62457;SDS011;48509;52.122;5.250;2022-09-12T09:55:11;37.0;;;29.8;;
62457;SDS011;48509;52.122;5.250;2022-09-12T09:56:52;35.31;;;30.3;;
62457;SDS011;48509;52.122;5.250;2022-09-12T10:00:39;42.1;;;33.1;;
62457;SDS011;48509;52.122;5.250;2022-09-12T10:02:18;36.9;;;31.0;;
62457;SDS011;48509;52.122;5.250;2022-09-12T10:03:56;39.21;;;30.6;;
62457;SDS011;48509;52.122;5.250;2022-09-12T10:05:34;38.1;;;30.0;;
62457;SDS011;48509;52.122;5.250;2022-09-12T10:07:21;31.1;;;26.6;;
62457;SDS011;48509;52.122;5.250;2022-09-12T10:09:16;33.3;;;25.8;;
62457;SDS011;48509;52.122;5.250;2022-09-12T10:12:34;31.9;;;24.8;;
62457;SDS011;48509;52.122;5.250;2022-09-12T10:14:24;30.2;;;24.1;;
62457;SDS011;48509;52.122;5.250;2022-09-12T10:16:18;28.2;;;22.9;;
62457;SDS011;48509;52.122;5.250;2022-09-12T10:17:57;28.8;;;23.7;;
62457;SDS011;48509;52.122;5.250;2022-09-12T10:19:34;26.3;;;19.8;;
62457;SDS011;48509;52.122;5.250;2022-09-12T10:22:56;22.8;;;18.7;;
62457;SDS011;48509;52.122;5.250;2022-09-12T10:24:35;26.3;;;19.0;;
62457;SDS011;48509;52.122;5.250;2022-09-12T10:26:15;20.6;;;16.0;;
62457;SDS011;48509;52.122;5.250;2022-09-12T10:27:55;24.3;;;16.11;;
62457;SDS011;48509;52.122;5.250;2022-09-12T10:31:22;16.2;;;13.0;;
62457;SDS011;48509;52.122;5.250;2022-09-12T10:33:03;19.41;;;14.5;;
62457;SDS011;48509;52.122;5.250;2022-09-12T10:34:43;20.7;;;16.0;;
62457;SDS011;48509;52.122;5.250;2022-09-12T10:36:20;22.7;;;16.2;;
62457;SDS011;48509;52.122;5.250;2022-09-12T10:39:37;19.3;;;14.6;;
62457;SDS011;48509;52.122;5.250;2022-09-12T10:41:13;16.7;;;13.0;;
62457;SDS011;48509;52.122;5.250;2022-09-12T10:42:50;14.1;;;12.0;;
62457;SDS011;48509;52.122;5.250;2022-09-12T10:46:26;16.9;;;13.3;;
62457;SDS011;48509;52.122;5.250;2022-09-12T10:48:21;15.4;;;12.1;;
62457;SDS011;48509;52.122;5.250;2022-09-12T10:50:17;15.4;;;11.7;;
62457;SDS011;48509;52.122;5.250;2022-09-12T10:51:56;17.7;;;14.2;;
62457;SDS011;48509;52.122;5.250;2022-09-12T10:53:50;17.8;;;13.1;;
62457;SDS011;48509;52.122;5.250;2022-09-12T10:55:31;13.5;;;10.8;;
62457;SDS011;48509;52.122;5.250;2022-09-12T10:57:14;16.2;;;11.9;;
62457;SDS011;48509;52.122;5.250;2022-09-12T11:00:57;17.2;;;12.5;;
62457;SDS011;48509;52.122;5.250;2022-09-12T11:02:47;15.8;;;12.0;;
62457;SDS011;48509;52.122;5.250;2022-09-12T11:04:37;13.2;;;10.8;;
62457;SDS011;48509;52.122;5.250;2022-09-12T11:06:25;10.5;;;9.4;;
62457;SDS011;48509;52.122;5.250;2022-09-12T11:08:17;18.2;;;13.0;;
62457;SDS011;48509;52.122;5.250;2022-09-12T11:10:34;11.4;;;9.6;;
62457;SDS011;48509;52.122;5.250;2022-09-12T11:12:22;13.0;;;10.4;;
62457;SDS011;48509;52.122;5.250;2022-09-12T11:14:11;11.7;;;10.4;;
62457;SDS011;48509;52.122;5.250;2022-09-12T11:16:15;12.5;;;10.0;;
62457;SDS011;48509;52.122;5.250;2022-09-12T11:18:03;13.9;;;10.21;;
62457;SDS011;48509;52.122;5.250;2022-09-12T11:23:06;11.9;;;8.2;;
62457;SDS011;48509;52.122;5.250;2022-09-12T11:26:53;12.8;;;9.21;;
62457;SDS011;48509;52.122;5.250;2022-09-12T11:28:41;10.5;;;7.7;;
62457;SDS011;48509;52.122;5.250;2022-09-12T11:32:49;8.6;;;7.6;;
62457;SDS011;48509;52.122;5.250;2022-09-12T11:35:06;10.21;;;8.1;;
62457;SDS011;48509;52.122;5.250;2022-09-12T11:36:54;8.4;;;6.5;;
62457;SDS011;48509;52.122;5.250;2022-09-12T11:40:28;9.71;;;7.2;;
62457;SDS011;48509;52.122;5.250;2022-09-12T11:42:11;11.1;;;7.5;;
62457;SDS011;48509;52.122;5.250;2022-09-12T11:43:54;14.2;;;9.5;;
62457;SDS011;48509;52.122;5.250;2022-09-12T11:45:37;7.7;;;6.9;;
62457;SDS011;48509;52.122;5.250;2022-09-12T11:47:19;14.5;;;8.2;;
62457;SDS011;48509;52.122;5.250;2022-09-12T11:50:39;12.1;;;8.9;;
62457;SDS011;48509;52.122;5.250;2022-09-12T11:52:16;8.9;;;7.4;;
62457;SDS011;48509;52.122;5.250;2022-09-12T11:55:45;9.81;;;8.0;;
62457;SDS011;48509;52.122;5.250;2022-09-12T11:59:14;10.8;;;6.4;;
62457;SDS011;48509;52.122;5.250;2022-09-12T12:01:07;10.4;;;6.6;;
62457;SDS011;48509;52.122;5.250;2022-09-12T12:02:52;9.1;;;7.4;;
62457;SDS011;48509;52.122;5.250;2022-09-12T12:04:42;10.8;;;7.9;;
62457;SDS011;48509;52.122;5.250;2022-09-12T12:06:36;10.6;;;7.0;;
62457;SDS011;48509;52.122;5.250;2022-09-12T12:08:23;7.2;;;5.3;;
62457;SDS011;48509;52.122;5.250;2022-09-12T12:11:40;9.6;;;6.4;;
62457;SDS011;48509;52.122;5.250;2022-09-12T12:13:22;6.3;;;5.3;;
62457;SDS011;48509;52.122;5.250;2022-09-12T12:15:05;8.71;;;4.7;;
62457;SDS011;48509;52.122;5.250;2022-09-12T12:16:41;7.0;;;5.3;;
62457;SDS011;48509;52.122;5.250;2022-09-12T12:20:00;7.0;;;5.3;;
62457;SDS011;48509;52.122;5.250;2022-09-12T12:21:39;7.0;;;5.5;;
62457;SDS011;48509;52.122;5.250;2022-09-12T12:23:21;7.3;;;5.4;;
62457;SDS011;48509;52.122;5.250;2022-09-12T12:25:02;6.8;;;4.5;;
62457;SDS011;48509;52.122;5.250;2022-09-12T12:29:09;6.6;;;4.7;;
62457;SDS011;48509;52.122;5.250;2022-09-12T12:31:00;8.81;;;5.5;;
62457;SDS011;48509;52.122;5.250;2022-09-12T12:32:37;6.1;;;4.8;;
62457;SDS011;48509;52.122;5.250;2022-09-12T12:34:21;9.0;;;6.4;;
62457;SDS011;48509;52.122;5.250;2022-09-12T12:36:04;6.6;;;5.6;;
62457;SDS011;48509;52.122;5.250;2022-09-12T12:37:46;7.1;;;5.9;;
62457;SDS011;48509;52.122;5.250;2022-09-12T12:41:42;6.5;;;5.2;;
62457;SDS011;48509;52.122;5.250;2022-09-12T12:43:27;7.8;;;5.6;;
62457;SDS011;48509;52.122;5.250;2022-09-12T12:45:44;5.9;;;5.11;;
62457;SDS011;48509;52.122;5.250;2022-09-12T12:47:38;10.4;;;6.9;;